Nearby METAR Reports


KSYR - Syracuse, New York, USA
Distance from station: SE 5mi, 8km
Updated: Wed, 15-Aug-2018 4:54pm EDT
Mostly cloudy
Mostly cloudy
 Wind from W
Wind: W 13 mph , 20 km/h, Gust: 21 mph , 33 km/h
Temperature: 86°F , 30°C
Heat Index: 88°F , 31°C
Dew Point: 66°F , 19°C
Humidity: 52%
Barometer: 29.90 inHg , 1012.5 hPa
Clouds: Mostly cloudy
Visibility: 10 miles , 16 km
Cloud details: Few Clouds 5000 ft
Partly cloudy 18000 ft
Mostly cloudy 24000 ft
2018/08/15 20:54 KSYR 152054Z 28011G18KT 10SM FEW050 SCT180 BKN240 30/19 A2990 RMK AO2 SLP119 T03000194 56005
KFZY - Fulton, New York, USA
Distance from station: NW 17mi, 27km
Updated: Wed, 15-Aug-2018 4:54pm EDT
Clear
Clear
 Wind from WNW
Wind: WNW 10 mph , 17 km/h
Temperature: 84°F , 29°C
Heat Index: 85°F , 29°C
Dew Point: 64°F , 18°C
Humidity: 51%
Barometer: 29.91 inHg , 1012.9 hPa
Clouds: Clear
Visibility: 9 miles , 14 km
2018/08/15 20:54 KFZY 152054Z AUTO 29009KT 9SM CLR 29/18 A2991 RMK AO2 RAB32E41 SLP125 P0000 60000 T02890183 58004 $
 
KRME - Rome/Griffiss Af, New York, USA
Distance from station: E 39mi, 62km
Updated: Wed, 15-Aug-2018 4:53pm EDT
Clear
Clear
 Wind from W
Wind: W 9 mph , 15 km/h
Temperature: 82°F , 28°C
Heat Index: 86°F , 30°C
Dew Point: 72°F , 22°C
Humidity: 70%
Barometer: 29.91 inHg , 1012.9 hPa
Clouds: Clear
Visibility: 10 miles , 16 km
2018/08/15 20:53 KRME 152053Z 28008KT 10SM CLR 28/22 A2991 RMK AO2 SLP124 T02830217 56005
KITH - Ithaca/Tompkins, New York, USA
Distance from station: SSW 51mi, 82km
Updated: Wed, 15-Aug-2018 4:56pm EDT
Few Clouds
Few Clouds
 Wind from WNW
Wind: WNW 8 mph , 13 km/h
Temperature: 82°F , 28°C
Heat Index: 86°F , 30°C
Dew Point: 70°F , 21°C
Humidity: 66%
Barometer: 29.96 inHg , 1014.6 hPa
Clouds: Few Clouds
Visibility: 10 miles , 16 km
Cloud details: Few Clouds 4000 ft
2018/08/15 20:56 KITH 152056Z 29007KT 10SM FEW040 28/21 A2996 RMK AO2 SLP139 T02830206 58006
 
KART - Watertown, New York, USA
Distance from station: N 56mi, 91km
Updated: Wed, 15-Aug-2018 4:56pm EDT
Nearby thunderstorm, Haze, Few clouds
Nearby thunderstorm, Haze, Few clouds
 Wind from WSW
Wind: WSW 6 mph , 9 km/h
Temperature: 77°F , 25°C
Dew Point: 72°F , 22°C
Humidity: 83%
Barometer: 29.90 inHg , 1012.5 hPa
Summary: Nearby thunderstorm, Haze
Clouds: Few Clouds
Visibility: 4 miles , 6 km
Cloud details: Few Clouds 11000 ft
2018/08/15 20:56 KART 152056Z AUTO 24005KT 4SM VCTS HZ FEW110 25/22 A2990 RMK AO2 LTG DSNT W-N SLP120 T02500222 55001
KPEO - Penn Yan, New York, USA
Distance from station: SW 58mi, 93km
Updated: Wed, 15-Aug-2018 4:53pm EDT
Few Clouds
Few Clouds
 Wind from W
Wind: W 9 mph , 15 km/h
Temperature: 84°F , 29°C
Heat Index: 87°F , 31°C
Dew Point: 68°F , 20°C
Humidity: 58%
Barometer: 29.96 inHg , 1014.6 hPa
Clouds: Few Clouds
Visibility: 10 miles , 16 km
Cloud details: Few Clouds 4400 ft
2018/08/15 20:53 KPEO 152053Z AUTO 26008KT 10SM FEW044 29/20 A2996 RMK AO2 SLP136 T02890200 58003
 
KGTB - Fort Drum/Wheele, New York, USA
Distance from station: NNE 64mi, 102km
Updated: Wed, 15-Aug-2018 4:56pm EDT
Overcast
Overcast
 Wind from WSW
Wind: WSW 9 mph , 15 km/h
Temperature: 79°F , 26°C
Dew Point: 73°F , 23°C
Humidity: 84%
Barometer: 29.89 inHg , 1012.2 hPa
Clouds: Overcast
Visibility: 9 miles , 14 km
Cloud details: Overcast 2500 ft
2018/08/15 20:56 KGTB 152056Z 24008KT 9SM OVC025 26/23 A2989 RMK AO2A SLP119 T02610229 55005 TSNO $
CWQP - Point Petre (mar, Ontario, Canada
Distance from station: NW 67mi, 107km
Updated: Wed, 15-Aug-2018 5:00pm EDT

 Wind from WNW
Wind: WNW 15 mph , 24 km/h, Gust: 22 mph , 35 km/h
Temperature: 81°F , 27°C
Heat Index: 85°F , 29°C
Dew Point: 70°F , 21°C
Humidity: 70%
2018/08/15 21:00 CWQP 152100Z AUTO 29013G19KT 27/21 RMK AO1 PK WND 31023/2046 SLP122 T02710209 55005
 
KBGM - Binghamton, New York, USA
Distance from station: S 67mi, 107km
Updated: Wed, 15-Aug-2018 4:53pm EDT
Clear
Clear
 Wind from WNW
Wind: WNW 8 mph , 13 km/h
Temperature: 81°F , 27°C
Heat Index: 83°F , 28°C
Dew Point: 66°F , 19°C
Humidity: 62%
Barometer: 29.99 inHg , 1015.6 hPa
Clouds: Clear
Visibility: 10 miles , 16 km
2018/08/15 20:53 KBGM 152053Z 30007KT 10SM CLR 27/19 A2999 RMK AO2 SLP143 T02670189 56002
CYGK - Kingston Arpt (m, Ontario, Canada
Distance from station: NNW 75mi, 121km
Updated: Wed, 15-Aug-2018 5:00pm EDT
Thunderstorm, Nearby showers, Overcast
Thunderstorm, Nearby showers, Overcast
 Wind from NNE
Wind: NNE 3 mph , 6 km/h
Temperature: 73°F , 23°C
Dew Point: 72°F , 22°C
Humidity: 94%
Barometer: 29.87 inHg , 1011.5 hPa
Summary: Thunderstorm, Nearby showers
Clouds: Overcast
Visibility: 6 miles , 10 km
Cloud details: Mostly cloudy 2000 ft
Mostly cloudy 4000 ft
Overcast 16000 ft
2018/08/15 21:00 CYGK 152100Z 03003KT 270V070 6SM TS VCSH BKN020CB BKN040 OVC160 23/22 A2987 RMK CB5SC2AC1 SLP117 DENSITY ALT 1400FT